Kenai, AK

7:02 AM AKST en Enero 20, 2017 (GMT -0900)
Wildwood | | Change Station

Alt 95 ft 60.58 °N, 151.31 °W | Updated 20 seconds ago

Light Snow
Débil nevada
1.6 ° F
Sensación térmica -5 ° F
N
3.2
Viento Variable Viento desde ENE
Gusts 4.6 mph

Hoy
Alta -- | Baja -- ° F
--% Posibilidad de precipitaciones
Ayer
Alta -- | Baja -- ° F
Precip. -- pul
Presión 29.58 pul
Visibilidad 9.0 Millas
Nubes Nublado 3700 ft
Vientos helados -5 ° F
Punto de rocío -1 ° F
Humedad 87%
Precipitaciones 0.00 pul
Espesor de la nieve No disponible.
9:46 AM 4:46 PM
Cuarto menguante, 43% visible
METAR PAEN 201553Z AUTO 05007KT 9SM -SN OVC037 M16/M18 A2957 RMK AO2 SLP016 P0001 T11611178 TSNO
Presión 29.58 pul
Visibilidad 9.0 Millas
Nubes Nublado 3700 ft
Vientos helados -5 ° F
Punto de rocío -1 ° F
Humedad 87%
Precipitaciones 0.00 pul
Espesor de la nieve No disponible.
9:46 AM 4:46 PM
Cuarto menguante, 43% visible
METAR PAEN 201553Z AUTO 05007KT 9SM -SN OVC037 M16/M18 A2957 RMK AO2 SLP016 P0001 T11611178 TSNO

Get Your Daily Forecast Email!

Thanks for signing up!

Be on the lookout for a verification email in your inbox.

You'll start receiving the daily forecast at 8 AM.

×

10-Day Weather Forecast

Almanac

Astronomía

Jan. 20, 2017 Salida Puesta
Hora real
Crepúsculo civil
Crepúsculo náutico
Crepúsculo astronómico
Luna
Horas de luz
Horas de luz
Tomorrow will be .
, % of the Moon is Illuminated

Extremos de hoy

Máximos del estado Bajos del estado

Community

WunderPhotos

Upload Photos

1,962,540 ¡fotos cargadas!

WunderBlog® & News

Nearby

Calidad del aire

  Calidad del aire Índice AQ Contaminante
Not available.

Grosos de nieve

Estación Profundido Altura

Actividad de terremotos

Ciudad Distance Mag. Tiempo y dato
Magnitud mínima muestra es 2,5.

Temperaturas de aguas costeras

Lugar Temperatura

Stations

Estaciones meteorológicas cercanas

Ubicación de la estación Temp. Vientos helados Punto de rocío Humedad Viento Precip. Alt Actualizado Tipo
                   

Watches & Warnings

There are currently no watches in effect.